Time;durP1;ratioP1;P1;durP2;ratioP2;P2;SDS_P1;SDS_P2;PMS_P1;PMS_P2;Temp;Humidity;BMP_temperature;BMP_pressure;BME280_temperature;BME280_humidity;BME280_pressure;Samples;Min_cycle;Max_cycle;Signal;HPM_P1;HPM_P2
2023/03/13 00:01:33;;;;;;;19.60;6.35;;;9.80;99.90;;;;;;4998047;28;20184;-79
2023/03/13 00:04:00;;;;;;;21.38;6.22;;;9.80;99.90;;;;;;4981882;28;20181;-79
2023/03/13 00:06:31;;;;;;;19.27;5.95;;;9.80;99.90;;;;;;4998848;28;20200;-80
2023/03/13 00:08:59;;;;;;;17.40;6.25;;;9.80;99.90;;;;;;4998902;28;20157;-79
2023/03/13 00:11:26;;;;;;;17.60;6.63;;;9.80;99.90;;;;;;4998561;28;20184;-79
2023/03/13 00:13:55;;;;;;;22.15;5.82;;;9.80;99.90;;;;;;4998457;28;20200;-79
2023/03/13 00:16:21;;;;;;;13.82;6.28;;;9.80;99.90;;;;;;4998202;28;20224;-79
2023/03/13 00:18:49;;;;;;;20.50;5.95;;;9.80;99.90;;;;;;4998594;28;20183;-79
2023/03/13 00:21:16;;;;;;;17.13;6.25;;;9.80;99.90;;;;;;4996863;28;20657;-79
2023/03/13 00:23:42;;;;;;;19.52;6.50;;;9.90;99.90;;;;;;4979978;28;20549;-79
2023/03/13 00:26:10;;;;;;;22.98;6.13;;;9.80;99.90;;;;;;4984434;28;20235;-79
2023/03/13 00:28:37;;;;;;;15.02;6.53;;;9.80;99.90;;;;;;4987327;28;20184;-79
2023/03/13 00:31:04;;;;;;;19.83;7.00;;;9.90;99.90;;;;;;4983686;28;20177;-79
2023/03/13 00:33:43;;;;;;;19.27;6.50;;;10.00;99.90;;;;;;4999465;28;20203;-79
2023/03/13 00:36:12;;;;;;;22.77;6.90;;;10.00;99.90;;;;;;4998543;28;20219;-79
2023/03/13 00:38:38;;;;;;;18.88;6.40;;;10.10;99.90;;;;;;4981868;28;20172;-79
2023/03/13 00:41:06;;;;;;;16.92;5.90;;;10.20;99.90;;;;;;4998526;28;20169;-79
2023/03/13 00:43:33;;;;;;;16.23;5.53;;;10.10;99.90;;;;;;4998127;28;20173;-79
2023/03/13 00:45:59;;;;;;;20.67;6.70;;;10.10;99.90;;;;;;4998480;28;20192;-79
2023/03/13 00:48:25;;;;;;;13.80;5.40;;;10.10;99.90;;;;;;4997499;28;20176;-79
2023/03/13 00:50:51;;;;;;;18.52;6.03;;;10.10;99.90;;;;;;4980036;28;20219;-79
2023/03/13 00:53:17;;;;;;;21.63;6.35;;;10.10;99.90;;;;;;4980318;28;20224;-79
2023/03/13 00:56:07;;;;;;;25.83;6.93;;;10.00;99.90;;;;;;5000531;28;20203;-79
2023/03/13 00:58:35;;;;;;;16.20;6.80;;;10.00;99.90;;;;;;4983814;28;20532;-79
2023/03/13 01:01:07;;;;;;;17.45;6.10;;;10.00;99.90;;;;;;5002372;28;20181;-79
2023/03/13 01:03:34;;;;;;;21.70;6.18;;;9.90;99.90;;;;;;5000951;28;20195;-79
2023/03/13 01:06:02;;;;;;;14.85;5.80;;;9.80;99.90;;;;;;5002111;28;20251;-79
2023/03/13 01:08:28;;;;;;;13.13;5.43;;;9.80;99.90;;;;;;4983492;28;20190;-79
2023/03/13 01:11:27;;;;;;;17.75;5.82;;;9.80;99.90;;;;;;4983385;28;20188;-79
2023/03/13 01:13:55;;;;;;;15.73;6.18;;;9.80;99.90;;;;;;4988314;28;20244;-79
2023/03/13 01:16:22;;;;;;;16.77;6.18;;;9.90;99.90;;;;;;4983398;28;20550;-79
2023/03/13 01:18:51;;;;;;;16.90;5.78;;;9.90;99.90;;;;;;4983774;28;20636;-79
2023/03/13 01:21:21;;;;;;;16.55;6.18;;;9.90;99.90;;;;;;4983546;28;20184;-79
2023/03/13 01:23:48;;;;;;;16.00;5.70;;;9.90;99.90;;;;;;4984001;28;20196;-79
2023/03/13 01:26:14;;;;;;;16.37;6.60;;;9.90;99.90;;;;;;5002605;28;20204;-79
2023/03/13 01:28:40;;;;;;;14.77;5.90;;;9.90;99.90;;;;;;5003282;28;20197;-79
2023/03/13 01:31:17;;;;;;;14.93;5.88;;;9.90;99.90;;;;;;5002438;28;20185;-79
2023/03/13 01:33:44;;;;;;;21.80;5.55;;;9.80;99.90;;;;;;5002541;28;20192;-79
2023/03/13 01:36:10;;;;;;;19.73;6.72;;;9.80;99.90;;;;;;4984888;28;20259;-80
2023/03/13 01:38:37;;;;;;;22.65;6.30;;;9.80;99.90;;;;;;5004884;28;20177;-80
2023/03/13 01:41:04;;;;;;;12.90;5.60;;;9.80;99.90;;;;;;5003826;28;20196;-81
2023/03/13 01:43:33;;;;;;;23.20;6.13;;;9.80;99.90;;;;;;5003521;28;20211;-81
2023/03/13 01:46:04;;;;;;;13.25;5.80;;;9.80;99.90;;;;;;5021430;28;20181;-80
2023/03/13 01:48:58;;;;;;;18.77;6.22;;;9.90;99.90;;;;;;5010465;28;20180;-79
2023/03/13 01:51:33;;;;;;;13.65;6.15;;;10.00;99.90;;;;;;5001239;28;20177;-79
2023/03/13 01:54:19;;;;;;;10.65;5.28;;;10.00;99.90;;;;;;4984475;28;20258;-79
2023/03/13 01:56:52;;;;;;;18.73;6.32;;;10.00;99.90;;;;;;5000832;28;20192;-79
2023/03/13 01:59:23;;;;;;;13.55;5.85;;;10.00;99.90;;;;;;5001376;28;20695;-79
2023/03/13 02:01:51;;;;;;;20.45;6.45;;;10.00;99.90;;;;;;4983858;28;20227;-79
2023/03/13 02:04:19;;;;;;;15.50;5.93;;;10.00;99.90;;;;;;5001676;28;20232;-79
2023/03/13 02:06:50;;;;;;;21.50;6.03;;;10.00;99.90;;;;;;5000911;28;20712;-79
2023/03/13 02:09:21;;;;;;;14.60;6.07;;;9.90;99.90;;;;;;5001592;28;20165;-79
2023/03/13 02:12:00;;;;;;;22.27;5.68;;;9.90;99.90;;;;;;4984221;28;20604;-79
2023/03/13 02:14:29;;;;;;;13.98;5.60;;;9.90;99.90;;;;;;4999357;28;20188;-79
2023/03/13 02:16:55;;;;;;;15.75;5.70;;;9.80;99.90;;;;;;4982916;28;20196;-79
2023/03/13 02:19:34;;;;;;;14.13;5.82;;;9.70;99.90;;;;;;4999874;28;20176;-79
2023/03/13 02:22:11;;;;;;;17.02;6.05;;;9.70;99.90;;;;;;4981263;28;20255;-79
2023/03/13 02:24:42;;;;;;;15.02;6.13;;;9.70;99.90;;;;;;4998092;28;20196;-79
2023/03/13 02:27:07;;;;;;;13.45;5.95;;;9.70;99.90;;;;;;4997633;28;20201;-79
2023/03/13 02:29:33;;;;;;;13.93;5.80;;;9.70;99.90;;;;;;4998727;28;20179;-79
2023/03/13 02:31:59;;;;;;;17.07;5.97;;;9.70;99.90;;;;;;4998761;28;20177;-79
2023/03/13 02:34:30;;;;;;;18.35;6.38;;;9.60;99.90;;;;;;4981320;28;20176;-79
2023/03/13 02:36:58;;;;;;;15.70;5.82;;;9.60;99.90;;;;;;4981750;28;20200;-80
2023/03/13 02:39:25;;;;;;;14.80;5.95;;;9.60;99.90;;;;;;4981537;28;20172;-80
2023/03/13 02:41:52;;;;;;;24.17;6.50;;;9.50;99.90;;;;;;4981510;28;20179;-80
2023/03/13 02:44:17;;;;;;;12.50;5.50;;;9.50;99.90;;;;;;4998920;28;20173;-79
2023/03/13 02:46:46;;;;;;;22.47;6.60;;;9.50;99.90;;;;;;4981368;28;20204;-79
2023/03/13 02:49:27;;;;;;;15.10;5.97;;;9.40;99.90;;;;;;4981600;28;20212;-79
2023/03/13 02:52:00;;;;;;;14.77;5.68;;;9.40;99.90;;;;;;4980947;28;20199;-79
2023/03/13 02:54:32;;;;;;;14.20;5.30;;;9.30;99.90;;;;;;4999226;28;20181;-79
2023/03/13 02:57:01;;;;;;;12.33;5.73;;;9.30;99.90;;;;;;4981446;28;20204;-79
2023/03/13 02:59:27;;;;;;;10.93;5.70;;;9.30;99.90;;;;;;5000238;28;20176;-79
2023/03/13 03:01:53;;;;;;;11.97;5.70;;;9.30;99.90;;;;;;4999186;28;20179;-79
2023/03/13 03:04:23;;;;;;;12.77;5.53;;;9.30;99.90;;;;;;4981685;28;20518;-79
2023/03/13 03:06:49;;;;;;;11.77;5.80;;;9.30;99.90;;;;;;4999711;28;20192;-79
2023/03/13 03:09:16;;;;;;;7.27;4.87;;;9.40;99.90;;;;;;4999525;28;20164;-79
2023/03/13 03:11:42;;;;;;;12.00;5.53;;;9.40;99.90;;;;;;4981530;28;20176;-79
2023/03/13 03:14:09;;;;;;;8.93;5.37;;;9.50;99.90;;;;;;4999182;28;20532;-79
2023/03/13 03:16:36;;;;;;;9.83;4.87;;;9.50;99.90;;;;;;4998878;28;20189;-79
2023/03/13 03:19:02;;;;;;;12.18;5.15;;;9.50;99.90;;;;;;4998734;28;20176;-79
2023/03/13 03:21:27;;;;;;;8.70;4.90;;;9.50;99.90;;;;;;4998851;28;20230;-79
2023/03/13 03:23:53;;;;;;;12.65;5.97;;;9.50;99.90;;;;;;4998556;28;20211;-79
2023/03/13 03:26:19;;;;;;;9.73;4.82;;;9.60;99.90;;;;;;4998463;28;20195;-80
2023/03/13 03:28:45;;;;;;;11.80;4.95;;;9.50;99.90;;;;;;4981013;28;20215;-79
2023/03/13 03:31:14;;;;;;;7.57;4.77;;;9.50;99.90;;;;;;4980620;28;20218;-79
2023/03/13 03:33:41;;;;;;;10.20;4.93;;;9.60;99.90;;;;;;4980053;28;20707;-79
2023/03/13 03:36:19;;;;;;;10.30;4.80;;;9.60;99.90;;;;;;4980050;28;20203;-79
2023/03/13 03:38:45;;;;;;;10.00;5.05;;;9.70;99.90;;;;;;4997386;28;20161;-79
2023/03/13 03:41:15;;;;;;;11.48;5.18;;;9.70;99.90;;;;;;4979297;28;20177;-79
2023/03/13 03:43:42;;;;;;;10.98;4.90;;;9.80;99.90;;;;;;4979300;28;20175;-79
2023/03/13 03:46:08;;;;;;;7.93;4.60;;;9.80;99.90;;;;;;4980216;28;20200;-79
2023/03/13 03:48:34;;;;;;;9.57;4.63;;;9.80;99.90;;;;;;4980087;28;20195;-79
2023/03/13 03:51:00;;;;;;;11.27;5.10;;;9.80;99.90;;;;;;4980130;28;20275;-79
2023/03/13 03:53:27;;;;;;;9.33;5.43;;;9.70;99.90;;;;;;4979877;28;20294;-79
2023/03/13 03:55:52;;;;;;;10.80;4.50;;;9.70;99.90;;;;;;4998181;28;20192;-79
2023/03/13 03:58:18;;;;;;;6.40;4.40;;;9.70;99.90;;;;;;5003399;28;20187;-79
2023/03/13 04:00:46;;;;;;;11.32;4.53;;;9.70;99.90;;;;;;4982247;28;20172;-79
2023/03/13 04:03:12;;;;;;;8.27;4.63;;;9.60;99.90;;;;;;4981596;28;20250;-79
2023/03/13 04:05:38;;;;;;;6.07;4.20;;;9.70;99.90;;;;;;4997927;28;20200;-79
2023/03/13 04:08:05;;;;;;;9.02;4.80;;;9.70;99.90;;;;;;4997736;28;20168;-79
2023/03/13 04:10:31;;;;;;;7.97;4.22;;;9.70;99.90;;;;;;4998137;28;20187;-79
2023/03/13 04:12:56;;;;;;;5.18;4.40;;;9.70;99.90;;;;;;4997681;28;20200;-79
2023/03/13 04:15:22;;;;;;;7.15;4.22;;;9.80;99.90;;;;;;4996836;28;20641;-79
2023/03/13 04:17:48;;;;;;;8.05;4.57;;;9.80;99.90;;;;;;4978790;28;20176;-79
2023/03/13 04:20:14;;;;;;;7.97;4.40;;;9.90;99.90;;;;;;4978702;28;20263;-78
2023/03/13 04:22:41;;;;;;;9.88;4.40;;;10.00;99.90;;;;;;4994913;28;20235;-78
2023/03/13 04:25:07;;;;;;;8.90;4.80;;;10.10;99.90;;;;;;4995792;28;20203;-79
2023/03/13 04:27:33;;;;;;;9.05;4.13;;;10.20;99.90;;;;;;4996210;28;20231;-79
2023/03/13 04:29:59;;;;;;;5.68;4.53;;;10.20;99.90;;;;;;4999159;28;20184;-79
2023/03/13 04:32:25;;;;;;;8.02;4.35;;;10.30;99.90;;;;;;4982755;28;20600;-79
2023/03/13 04:34:51;;;;;;;8.57;4.55;;;10.30;99.90;;;;;;5000224;28;20634;-79
2023/03/13 04:37:16;;;;;;;4.57;4.18;;;10.30;99.90;;;;;;4999978;28;20180;-79
2023/03/13 04:39:42;;;;;;;5.57;4.13;;;10.30;99.90;;;;;;4998781;28;20200;-79
2023/03/13 04:42:10;;;;;;;10.05;4.90;;;10.30;99.90;;;;;;4999791;28;20183;-79
2023/03/13 04:44:36;;;;;;;8.85;4.80;;;10.30;99.90;;;;;;4999915;28;20235;-79
2023/03/13 04:47:02;;;;;;;5.17;4.20;;;10.30;99.90;;;;;;4981968;28;20294;-79
2023/03/13 04:49:28;;;;;;;6.88;4.38;;;10.30;99.90;;;;;;4981695;28;20187;-79
2023/03/13 04:51:54;;;;;;;6.80;4.15;;;10.30;99.90;;;;;;4999225;28;20584;-78
2023/03/13 04:54:20;;;;;;;5.70;4.18;;;10.30;99.90;;;;;;4982628;28;20200;-78
2023/03/13 04:56:45;;;;;;;7.30;4.18;;;10.30;99.90;;;;;;4982600;28;20223;-79
2023/03/13 04:59:12;;;;;;;5.13;4.05;;;10.30;99.90;;;;;;4981879;28;20239;-79
2023/03/13 05:01:38;;;;;;;5.47;4.13;;;10.20;99.90;;;;;;5000455;28;20172;-79
2023/03/13 05:04:04;;;;;;;6.88;3.92;;;10.20;99.90;;;;;;4999462;28;20256;-79
2023/03/13 05:06:30;;;;;;;5.97;3.90;;;10.20;99.90;;;;;;4982141;28;20303;-79
2023/03/13 05:08:56;;;;;;;5.67;3.67;;;10.20;99.90;;;;;;5000610;28;20212;-79
2023/03/13 05:11:22;;;;;;;5.47;3.90;;;10.20;99.90;;;;;;4982978;28;20177;-79
2023/03/13 05:13:48;;;;;;;5.00;3.65;;;10.10;99.90;;;;;;4983283;28;20235;-79
2023/03/13 05:16:14;;;;;;;8.25;4.00;;;10.10;99.90;;;;;;4982341;28;20204;-79
2023/03/13 05:18:40;;;;;;;5.03;3.75;;;10.20;99.90;;;;;;5000488;28;20177;-79
2023/03/13 05:21:06;;;;;;;5.75;3.72;;;10.20;99.90;;;;;;5000513;28;20181;-79
2023/03/13 05:23:32;;;;;;;6.20;4.30;;;10.20;99.90;;;;;;4982583;28;20203;-79
2023/03/13 05:25:58;;;;;;;5.25;3.70;;;10.20;99.90;;;;;;5000508;28;20196;-79
2023/03/13 05:28:24;;;;;;;4.00;3.70;;;10.30;99.90;;;;;;4982089;28;20176;-79
2023/03/13 05:30:50;;;;;;;4.15;3.85;;;10.30;99.90;;;;;;5000088;28;20180;-79
2023/03/13 05:33:18;;;;;;;5.30;3.90;;;10.30;99.90;;;;;;4999862;28;20676;-79
2023/03/13 05:35:44;;;;;;;4.20;3.80;;;10.40;99.90;;;;;;4982187;28;20204;-79
2023/03/13 05:38:10;;;;;;;5.15;3.83;;;10.50;99.90;;;;;;4999421;28;20223;-79
2023/03/13 05:40:36;;;;;;;4.40;4.00;;;10.50;99.90;;;;;;4999393;28;20180;-79
2023/03/13 05:43:02;;;;;;;4.45;4.05;;;10.50;99.90;;;;;;4983196;28;20192;-79
2023/03/13 05:45:28;;;;;;;6.28;4.13;;;10.50;99.90;;;;;;5000360;28;20200;-78
2023/03/13 05:47:53;;;;;;;4.15;3.85;;;10.60;99.90;;;;;;5000135;28;20208;-79
2023/03/13 05:50:19;;;;;;;4.20;3.90;;;10.60;99.90;;;;;;4999014;28;20230;-79
2023/03/13 05:52:45;;;;;;;4.20;3.90;;;10.60;99.90;;;;;;4998936;28;20693;-79
2023/03/13 05:55:11;;;;;;;4.30;3.90;;;10.70;99.90;;;;;;4981333;28;20661;-79
2023/03/13 05:57:36;;;;;;;6.97;4.35;;;10.80;99.90;;;;;;4981253;28;20180;-79
2023/03/13 06:00:03;;;;;;;4.57;4.18;;;10.80;99.90;;;;;;4998525;28;20231;-79
2023/03/13 06:02:28;;;;;;;6.25;4.50;;;10.90;99.90;;;;;;4998599;28;20656;-78
2023/03/13 06:04:54;;;;;;;4.40;4.00;;;10.90;99.90;;;;;;4998348;28;20185;-78
2023/03/13 06:07:20;;;;;;;4.85;4.45;;;10.90;99.90;;;;;;4998390;28;20176;-78
2023/03/13 06:09:46;;;;;;;5.65;4.25;;;10.90;99.90;;;;;;4981122;28;20561;-78
2023/03/13 06:12:11;;;;;;;5.03;4.30;;;11.00;99.90;;;;;;4980909;28;20185;-78
2023/03/13 06:14:37;;;;;;;6.88;5.05;;;11.00;99.90;;;;;;4998591;28;20255;-78
2023/03/13 06:17:04;;;;;;;6.32;5.10;;;11.00;99.90;;;;;;4998482;28;20259;-79
2023/03/13 06:19:30;;;;;;;4.95;4.45;;;11.00;99.90;;;;;;4998454;28;20570;-79
2023/03/13 06:21:55;;;;;;;6.55;4.75;;;11.10;99.90;;;;;;4998018;28;20176;-79
2023/03/13 06:24:22;;;;;;;4.90;4.50;;;11.10;99.90;;;;;;4979592;28;20283;-79
2023/03/13 06:26:48;;;;;;;4.85;4.20;;;11.10;99.90;;;;;;4997044;28;20260;-79
2023/03/13 06:29:14;;;;;;;6.13;4.22;;;11.10;99.90;;;;;;4995950;28;20188;-79
2023/03/13 06:31:40;;;;;;;3.97;3.78;;;11.10;99.90;;;;;;4979451;28;20181;-79
2023/03/13 06:34:07;;;;;;;4.13;3.83;;;11.10;99.90;;;;;;4979787;28;20688;-79
2023/03/13 06:36:32;;;;;;;4.10;3.80;;;11.10;99.90;;;;;;4979293;28;20254;-79
2023/03/13 06:38:58;;;;;;;4.38;4.03;;;11.10;99.90;;;;;;4978991;28;20704;-79
2023/03/13 06:41:24;;;;;;;4.03;3.72;;;11.20;99.90;;;;;;4996872;28;20173;-78
2023/03/13 06:43:50;;;;;;;3.72;3.45;;;11.20;99.90;;;;;;4996937;28;20259;-78
2023/03/13 06:46:19;;;;;;;4.03;3.70;;;11.20;99.90;;;;;;4996580;28;20200;-79
2023/03/13 06:48:45;;;;;;;4.30;3.90;;;11.20;99.90;;;;;;4979353;28;20177;-79
2023/03/13 06:51:16;;;;;;;3.85;3.60;;;11.30;99.90;;;;;;4979205;28;20656;-79
2023/03/13 06:53:42;;;;;;;4.07;3.83;;;11.40;99.90;;;;;;4977837;28;20563;-79
2023/03/13 06:56:08;;;;;;;3.95;3.15;;;11.40;99.90;;;;;;4996819;28;20200;-79
2023/03/13 06:58:34;;;;;;;3.80;3.50;;;11.40;99.90;;;;;;4996023;28;20564;-79
2023/03/13 07:01:11;;;;;;;3.90;3.50;;;11.50;99.90;;;;;;4996594;28;20177;-79
2023/03/13 07:03:37;;;;;;;3.67;3.35;;;11.50;99.90;;;;;;4996572;28;20629;-78
2023/03/13 07:06:04;;;;;;;3.45;3.10;;;11.60;99.90;;;;;;4978702;28;20226;-79
2023/03/13 07:08:31;;;;;;;4.13;3.60;;;11.60;99.90;;;;;;4996622;28;20180;-79
2023/03/13 07:10:59;;;;;;;5.28;3.50;;;11.70;99.90;;;;;;4996578;28;20672;-79
2023/03/13 07:13:25;;;;;;;3.90;3.60;;;11.70;99.90;;;;;;4996558;28;20239;-79
2023/03/13 07:15:52;;;;;;;3.80;3.50;;;11.70;99.90;;;;;;4996612;28;20197;-79
2023/03/13 07:18:18;;;;;;;3.30;3.10;;;11.80;99.90;;;;;;4997004;28;20172;-79
2023/03/13 07:20:44;;;;;;;4.53;3.53;;;11.90;99.90;;;;;;4979630;28;20645;-79
2023/03/13 07:23:09;;;;;;;3.65;3.40;;;12.00;99.90;;;;;;4981671;28;20196;-78
2023/03/13 07:25:35;;;;;;;5.97;3.63;;;12.00;99.90;;;;;;4999995;28;20208;-79
2023/03/13 07:28:01;;;;;;;3.83;3.50;;;12.00;99.90;;;;;;4987093;28;20184;-78
2023/03/13 07:30:27;;;;;;;3.67;3.38;;;12.10;99.90;;;;;;5002062;28;20185;-78
2023/03/13 07:32:53;;;;;;;3.70;3.40;;;12.20;99.90;;;;;;5000296;28;20200;-79
2023/03/13 07:35:18;;;;;;;6.70;3.80;;;12.20;99.90;;;;;;4997731;28;20572;-80
2023/03/13 07:37:44;;;;;;;3.72;3.42;;;12.30;99.90;;;;;;4979528;28;20555;-79
2023/03/13 07:40:11;;;;;;;3.70;3.40;;;12.30;99.90;;;;;;4979585;28;20187;-79
2023/03/13 07:42:40;;;;;;;4.15;3.50;;;12.50;99.90;;;;;;4995955;28;20184;-78
2023/03/13 07:45:07;;;;;;;4.85;3.78;;;12.50;99.90;;;;;;4996506;28;20172;-78
2023/03/13 07:47:33;;;;;;;6.95;3.75;;;12.60;99.90;;;;;;4996437;28;20177;-79
2023/03/13 07:49:59;;;;;;;5.40;4.15;;;12.70;99.90;;;;;;4995602;28;20172;-79
2023/03/13 07:52:26;;;;;;;7.20;3.70;;;12.70;99.90;;;;;;4978137;28;20672;-79
2023/03/13 07:54:52;;;;;;;3.70;3.40;;;12.80;99.90;;;;;;4978083;28;20180;-79
2023/03/13 07:57:19;;;;;;;5.00;3.40;;;12.90;99.90;;;;;;4977828;28;20645;-78
2023/03/13 07:59:44;;;;;;;4.53;4.05;;;12.90;99.90;;;;;;4995836;28;20212;-79
2023/03/13 08:02:15;;;;;;;5.75;3.60;;;13.00;99.90;;;;;;4995934;28;20172;-79
2023/03/13 08:04:40;;;;;;;4.07;3.70;;;13.10;99.90;;;;;;4995462;28;20172;-79
2023/03/13 08:07:10;;;;;;;5.85;3.78;;;13.10;99.90;;;;;;4995764;28;20242;-79
2023/03/13 08:09:36;;;;;;;6.75;4.10;;;13.10;99.90;;;;;;4978232;28;20210;-79
2023/03/13 08:12:02;;;;;;;4.32;3.97;;;13.00;99.90;;;;;;4978262;28;20172;-79
2023/03/13 08:14:27;;;;;;;4.57;4.18;;;13.00;99.90;;;;;;4978307;28;20212;-79
2023/03/13 08:16:53;;;;;;;4.45;4.05;;;13.00;99.90;;;;;;4979086;28;20200;-79
2023/03/13 08:19:19;;;;;;;4.30;3.90;;;13.00;99.90;;;;;;4996023;28;20168;-79
2023/03/13 08:21:44;;;;;;;4.97;4.10;;;13.00;99.90;;;;;;4995901;28;20177;-79
2023/03/13 08:24:11;;;;;;;4.97;4.00;;;13.10;99.90;;;;;;4995898;28;20673;-79
2023/03/13 08:26:39;;;;;;;8.52;4.22;;;13.10;99.90;;;;;;4995634;28;20196;-79
2023/03/13 08:29:11;;;;;;;5.50;3.70;;;13.10;99.90;;;;;;4995975;28;20251;-80
2023/03/13 08:31:47;;;;;;;7.55;3.90;;;13.10;99.90;;;;;;4995623;28;20176;-79
2023/03/13 08:34:14;;;;;;;5.55;3.67;;;13.20;99.90;;;;;;4978060;28;20215;-79
2023/03/13 08:36:41;;;;;;;5.15;3.97;;;13.20;99.90;;;;;;4995598;28;20669;-79
2023/03/13 08:39:11;;;;;;;7.15;3.88;;;13.20;99.90;;;;;;4995280;28;20649;-79
2023/03/13 08:41:39;;;;;;;5.43;4.05;;;13.20;99.90;;;;;;4977926;28;20184;-79
2023/03/13 08:44:06;;;;;;;5.63;4.03;;;13.20;99.90;;;;;;4977826;28;20611;-79
2023/03/13 08:46:34;;;;;;;4.22;3.83;;;13.20;99.90;;;;;;4978033;28;20605;-79
2023/03/13 08:49:00;;;;;;;5.38;4.00;;;13.30;99.90;;;;;;4995606;28;20187;-79
2023/03/13 08:51:27;;;;;;;4.65;4.05;;;13.30;99.90;;;;;;4977785;28;20203;-79
2023/03/13 08:53:54;;;;;;;8.85;4.35;;;13.30;99.90;;;;;;4977538;28;20208;-79
2023/03/13 08:56:26;;;;;;;6.97;4.60;;;13.40;99.90;;;;;;4994545;28;20580;-79
2023/03/13 08:58:54;;;;;;;5.72;4.22;;;13.40;99.90;;;;;;4995283;28;20177;-79
2023/03/13 09:01:23;;;;;;;9.13;4.68;;;13.40;99.90;;;;;;4993665;28;20181;-79
2023/03/13 09:03:49;;;;;;;6.60;4.38;;;13.40;99.90;;;;;;4977621;28;20176;-79
2023/03/13 09:06:15;;;;;;;8.63;4.25;;;13.40;99.90;;;;;;4994961;28;20276;-79
2023/03/13 09:08:41;;;;;;;10.05;4.70;;;13.40;99.90;;;;;;4995326;28;20638;-79
2023/03/13 09:11:10;;;;;;;8.98;4.30;;;13.30;99.90;;;;;;4995231;28;20228;-78
2023/03/13 09:13:38;;;;;;;7.50;4.18;;;13.30;99.90;;;;;;4977865;28;20204;-78
2023/03/13 09:16:13;;;;;;;6.35;4.63;;;13.30;99.90;;;;;;4979030;28;20292;-78
2023/03/13 09:18:39;;;;;;;10.23;4.28;;;13.30;99.90;;;;;;4981821;28;20176;-78
2023/03/13 09:21:07;;;;;;;11.05;4.55;;;13.30;99.90;;;;;;4999261;28;20183;-78
2023/03/13 09:23:33;;;;;;;4.97;4.30;;;13.30;99.90;;;;;;4999038;28;20204;-78
2023/03/13 09:25:59;;;;;;;7.63;4.90;;;13.30;99.90;;;;;;4998446;28;20196;-78
2023/03/13 09:28:25;;;;;;;10.32;4.82;;;13.20;99.90;;;;;;4997613;28;20188;-78
2023/03/13 09:30:52;;;;;;;11.68;4.70;;;13.20;99.90;;;;;;4996600;28;20176;-78
2023/03/13 09:33:19;;;;;;;10.35;5.20;;;13.30;99.90;;;;;;4980411;28;20752;-78
2023/03/13 09:35:49;;;;;;;7.30;4.82;;;13.20;99.90;;;;;;4980047;28;20208;-78
2023/03/13 09:38:16;;;;;;;10.43;5.20;;;13.30;99.90;;;;;;4997563;28;20156;-78
2023/03/13 09:40:45;;;;;;;8.80;4.82;;;13.30;99.90;;;;;;4980059;28;20172;-78
2023/03/13 09:43:47;;;;;;;7.07;4.78;;;13.50;99.90;;;;;;4979996;28;20263;-78
2023/03/13 09:46:32;;;;;;;8.30;4.68;;;13.90;99.90;;;;;;4996668;28;20216;-79
2023/03/13 09:49:02;;;;;;;8.07;5.38;;;14.20;99.90;;;;;;4997337;28;20610;-79
2023/03/13 09:51:37;;;;;;;10.13;4.55;;;14.10;99.90;;;;;;4997425;28;20157;-79
2023/03/13 09:54:20;;;;;;;5.57;5.00;;;14.00;99.90;;;;;;4997602;28;20196;-79
2023/03/13 09:57:06;;;;;;;6.40;4.72;;;13.90;99.90;;;;;;4997046;28;20247;-79
2023/03/13 09:59:45;;;;;;;5.88;4.40;;;13.90;99.90;;;;;;4979939;28;20176;-79
2023/03/13 10:02:31;;;;;;;10.20;4.78;;;14.00;99.90;;;;;;4997042;28;20247;-78
2023/03/13 10:05:22;;;;;;;7.85;4.90;;;14.00;99.90;;;;;;4979941;28;20234;-78
2023/03/13 10:07:48;;;;;;;5.55;4.82;;;14.10;99.90;;;;;;4996952;28;20165;-78
2023/03/13 10:10:23;;;;;;;6.07;4.82;;;14.20;99.90;;;;;;4979859;28;20648;-79
2023/03/13 10:12:54;;;;;;;9.02;4.78;;;14.40;99.90;;;;;;4996910;28;20286;-79
2023/03/13 10:15:47;;;;;;;7.82;4.75;;;14.70;99.90;;;;;;4997060;28;20199;-79
2023/03/13 10:18:20;;;;;;;5.47;4.38;;;14.90;99.90;;;;;;4997773;28;20157;-79
2023/03/13 10:20:52;;;;;;;5.45;4.50;;;14.80;99.90;;;;;;4997693;28;20165;-79
2023/03/13 10:23:31;;;;;;;6.82;4.55;;;14.70;99.90;;;;;;4979804;28;20196;-78
2023/03/13 10:25:57;;;;;;;5.80;4.00;;;14.70;99.90;;;;;;4996695;28;20278;-79
2023/03/13 10:28:24;;;;;;;4.70;4.10;;;14.70;99.90;;;;;;4979105;28;20592;-79
2023/03/13 10:30:54;;;;;;;8.13;3.92;;;14.80;99.90;;;;;;4996637;28;20212;-79
2023/03/13 10:33:27;;;;;;;4.25;3.90;;;14.90;99.90;;;;;;4996604;28;20192;-78
2023/03/13 10:36:12;;;;;;;4.07;3.67;;;15.00;99.90;;;;;;4978940;28;20204;-79
2023/03/13 10:38:48;;;;;;;5.63;3.67;;;15.20;99.90;;;;;;4996380;28;20179;-79
2023/03/13 10:41:50;;;;;;;4.68;3.50;;;15.30;99.90;;;;;;4996950;28;20176;-79
2023/03/13 10:44:21;;;;;;;3.90;3.50;;;15.40;99.90;;;;;;4941195;29;20401;-79
2023/03/13 10:46:49;;;;;;;4.57;3.25;;;15.50;99.90;;;;;;4990623;28;20216;-79
2023/03/13 10:49:20;;;;;;;5.00;3.22;;;15.40;99.90;;;;;;4980793;28;20234;-79
2023/03/13 10:51:52;;;;;;;7.20;4.25;;;15.50;99.90;;;;;;4979055;28;20188;-78
2023/03/13 10:54:26;;;;;;;6.63;3.17;;;15.60;99.90;;;;;;4995992;28;20211;-79
2023/03/13 10:57:20;;;;;;;3.55;3.25;;;15.60;99.90;;;;;;4998012;28;20263;-79
2023/03/13 10:59:49;;;;;;;4.68;3.40;;;15.60;99.90;;;;;;4999366;28;20157;-79
2023/03/13 11:02:37;;;;;;;4.35;2.88;;;15.50;99.90;;;;;;4997715;28;20223;-79
2023/03/13 11:05:23;;;;;;;4.07;3.05;;;15.50;99.90;;;;;;4998369;28;20184;-79
2023/03/13 11:07:50;;;;;;;3.33;2.97;;;15.50;99.90;;;;;;4979912;28;20184;-79
2023/03/13 11:10:25;;;;;;;3.83;3.00;;;15.50;99.90;;;;;;4997356;28;20183;-79
2023/03/13 11:12:52;;;;;;;3.20;2.90;;;15.50;99.90;;;;;;4998257;28;20192;-79
2023/03/13 11:15:44;;;;;;;3.00;2.70;;;15.50;99.90;;;;;;4999131;28;20546;-79
2023/03/13 11:18:38;;;;;;;4.32;2.72;;;15.50;99.90;;;;;;4978813;28;20216;-79
2023/03/13 11:21:05;;;;;;;3.22;2.83;;;15.60;99.90;;;;;;4981033;28;20195;-80
2023/03/13 11:23:39;;;;;;;4.45;2.70;;;15.70;99.90;;;;;;4997700;28;20192;-79
2023/03/13 11:26:14;;;;;;;4.03;2.80;;;15.60;99.90;;;;;;4980140;28;20203;-79
2023/03/13 11:28:51;;;;;;;3.03;2.72;;;15.70;99.90;;;;;;4997953;28;20542;-79
2023/03/13 11:31:28;;;;;;;2.78;2.58;;;16.00;99.90;;;;;;4996107;28;20212;-78
2023/03/13 11:34:22;;;;;;;4.80;2.97;;;16.20;99.90;;;;;;4996031;28;20575;-79
2023/03/13 11:37:13;;;;;;;2.72;2.40;;;16.20;99.90;;;;;;4996248;28;20223;-79
2023/03/13 11:39:54;;;;;;;6.40;2.95;;;16.10;99.90;;;;;;4996120;28;20161;-79
2023/03/13 11:43:04;;;;;;;3.97;2.80;;;16.00;99.90;;;;;;4996101;28;20679;-79
2023/03/13 11:46:03;;;;;;;3.03;2.70;;;15.90;99.90;;;;;;4971898;28;20338;-80
2023/03/13 11:48:54;;;;;;;3.28;2.97;;;15.80;99.90;;;;;;4996629;28;20206;-79
2023/03/13 11:51:36;;;;;;;2.65;2.47;;;15.80;99.90;;;;;;4979171;28;20227;-79
2023/03/13 11:54:08;;;;;;;5.50;3.00;;;15.90;99.90;;;;;;4978596;28;20200;-79
2023/03/13 11:56:36;;;;;;;4.03;2.80;;;16.00;99.90;;;;;;4996416;28;20196;-79
2023/03/13 11:59:27;;;;;;;3.90;2.95;;;16.20;99.90;;;;;;4995983;28;20173;-79
2023/03/13 12:02:30;;;;;;;3.78;2.80;;;16.20;99.90;;;;;;4978164;28;20581;-79
2023/03/13 12:05:02;;;;;;;3.20;2.67;;;16.20;99.90;;;;;;4977995;28;20216;-80
2023/03/13 12:07:40;;;;;;;4.05;3.10;;;16.50;99.90;;;;;;4996427;28;20235;-79
2023/03/13 12:10:11;;;;;;;2.80;2.53;;;16.80;99.90;;;;;;4978525;28;20164;-79
2023/03/13 12:12:48;;;;;;;3.38;2.70;;;16.60;99.90;;;;;;4979018;28;20294;-80
2023/03/13 12:15:40;;;;;;;3.10;2.47;;;16.30;99.90;;;;;;4996467;28;20194;-80
2023/03/13 12:18:19;;;;;;;5.63;2.65;;;16.20;99.90;;;;;;4993145;28;20201;-79
2023/03/13 12:21:05;;;;;;;3.45;2.72;;;16.10;99.90;;;;;;4996455;28;20215;-79
2023/03/13 12:23:52;;;;;;;3.20;2.70;;;16.10;99.90;;;;;;4996127;28;20192;-79
2023/03/13 12:26:45;;;;;;;3.78;2.60;;;16.00;99.90;;;;;;4995822;28;20200;-79
2023/03/13 12:29:18;;;;;;;3.05;2.80;;;15.90;99.90;;;;;;4979647;28;20184;-80
2023/03/13 12:31:58;;;;;;;2.95;2.60;;;15.80;99.90;;;;;;4995919;28;20177;-80
2023/03/13 12:34:38;;;;;;;4.30;2.60;;;15.90;99.90;;;;;;4979599;28;20199;-80
2023/03/13 12:37:22;;;;;;;3.05;2.30;;;16.00;99.90;;;;;;4996765;28;20612;-80
2023/03/13 12:40:18;;;;;;;3.45;2.28;;;16.20;99.90;;;;;;4995404;28;20177;-79
2023/03/13 12:43:17;;;;;;;2.50;2.30;;;16.30;99.90;;;;;;4991298;28;20189;-79
2023/03/13 12:45:58;;;;;;;2.45;2.25;;;16.70;99.90;;;;;;4995632;28;20283;-79
2023/03/13 12:48:45;;;;;;;2.47;2.00;;;16.70;99.90;;;;;;4996663;28;20180;-79
2023/03/13 12:51:19;;;;;;;2.30;2.10;;;16.70;99.90;;;;;;4999786;28;20508;-79
2023/03/13 12:54:10;;;;;;;2.30;2.20;;;16.50;99.90;;;;;;5001210;28;20373;-79
2023/03/13 12:56:56;;;;;;;5.30;2.20;;;16.50;99.90;;;;;;4999058;28;20196;-78
2023/03/13 12:59:28;;;;;;;2.90;2.30;;;16.30;99.90;;;;;;4997679;28;20626;-79
2023/03/13 13:01:55;;;;;;;2.60;2.20;;;16.40;99.90;;;;;;4980706;28;20272;-79
2023/03/13 13:04:23;;;;;;;3.08;2.40;;;16.40;99.90;;;;;;4998029;28;20184;-79